createdAt,value
2019-03-30T00:02:35.784Z,43.13
2019-03-30T00:05:11.775Z,43.40
2019-03-30T00:07:47.861Z,43.21
2019-03-30T00:10:23.851Z,42.73
2019-03-30T00:12:59.897Z,43.40
2019-03-30T00:15:36.709Z,42.90
2019-03-30T00:18:09.919Z,42.90
2019-03-30T00:20:44.734Z,43.42
2019-03-30T00:23:19.704Z,43.31
2019-03-30T00:25:53.691Z,43.24
2019-03-30T00:28:28.877Z,43.18
2019-03-30T00:31:04.754Z,43.50
2019-03-30T00:33:39.645Z,43.45
2019-03-30T00:36:14.918Z,43.71
2019-03-30T00:38:50.871Z,43.27
2019-03-30T00:41:27.019Z,43.25
2019-03-30T00:44:03.697Z,43.63
2019-03-30T00:46:37.981Z,43.69
2019-03-30T00:49:13.726Z,42.99
2019-03-30T00:51:47.698Z,43.34
2019-03-30T00:54:23.751Z,43.57
2019-03-30T00:56:57.845Z,43.59
2019-03-30T00:59:34.755Z,43.66
2019-03-30T01:02:08.706Z,43.58
2019-03-30T01:04:43.650Z,43.57
2019-03-30T01:07:19.795Z,43.37
2019-03-30T01:09:54.703Z,43.37
2019-03-30T01:12:29.817Z,43.76
2019-03-30T01:15:05.900Z,42.58
2019-03-30T01:17:41.799Z,43.90
2019-03-30T01:21:25.602Z,43.51
2019-03-30T01:23:58.963Z,43.34
2019-03-30T01:26:32.409Z,43.34
2019-03-30T01:29:05.501Z,43.49
2019-03-30T01:31:39.419Z,43.56
2019-03-30T01:34:12.840Z,44.03
2019-03-30T01:36:46.362Z,43.84
2019-03-30T01:39:19.827Z,43.94
2019-03-30T01:41:53.516Z,43.67
2019-03-30T01:44:27.135Z,43.60
2019-03-30T01:47:00.392Z,43.27
2019-03-30T01:49:33.559Z,43.88
2019-03-30T01:52:06.872Z,43.48
2019-03-30T01:54:40.736Z,43.90
2019-03-30T01:57:12.738Z,43.20
2019-03-30T01:59:45.122Z,44.06
2019-03-30T02:02:18.392Z,43.95
2019-03-30T02:04:51.887Z,43.99
2019-03-30T02:07:25.852Z,43.71
2019-03-30T02:09:59.329Z,43.70
2019-03-30T02:12:33.002Z,43.89
2019-03-30T02:15:07.331Z,43.90
2019-03-30T02:17:40.540Z,43.89
2019-03-30T02:20:30.878Z,43.72
2019-03-30T02:23:04.386Z,43.66
2019-03-30T02:25:37.522Z,43.84
2019-03-30T02:28:11.324Z,43.81
2019-03-30T02:30:44.834Z,43.99
2019-03-30T02:33:18.330Z,43.69
2019-03-30T02:35:51.846Z,43.95
2019-03-30T02:38:25.290Z,43.19
2019-03-30T02:40:58.825Z,44.02
2019-03-30T02:43:32.412Z,43.92
2019-03-30T02:46:06.660Z,43.29
2019-03-30T02:48:40.101Z,43.52
2019-03-30T02:51:14.638Z,43.52
2019-03-30T02:53:48.466Z,43.56
2019-03-30T02:56:22.410Z,43.56
2019-03-30T02:58:55.860Z,43.59
2019-03-30T03:01:29.440Z,43.63
2019-03-30T03:04:02.932Z,43.91
2019-03-30T03:06:36.508Z,43.80
2019-03-30T03:09:11.327Z,44.00
2019-03-30T03:11:44.535Z,44.00
2019-03-30T03:14:18.077Z,43.70
2019-03-30T03:16:51.903Z,43.98
2019-03-30T03:19:25.394Z,43.65
2019-03-30T03:21:58.846Z,43.82
2019-03-30T03:24:32.427Z,43.67
2019-03-30T03:27:05.872Z,44.00
2019-03-30T03:29:43.377Z,43.56
2019-03-30T03:32:14.908Z,43.77
2019-03-30T03:34:48.393Z,43.77
2019-03-30T03:37:21.893Z,43.91
2019-03-30T03:39:55.384Z,44.15
2019-03-30T03:42:29.020Z,43.99
2019-03-30T03:45:02.874Z,44.09
2019-03-30T03:47:36.357Z,44.08
2019-03-30T03:50:11.839Z,43.67
2019-03-30T03:52:45.343Z,43.83
2019-03-30T03:55:18.849Z,43.83
2019-03-30T03:57:52.330Z,43.91
2019-03-30T04:00:25.456Z,43.62
2019-03-30T04:02:58.920Z,43.63
2019-03-30T04:05:32.336Z,44.10
2019-03-30T04:08:05.887Z,43.99
2019-03-30T04:10:40.054Z,44.18
2019-03-30T04:13:15.327Z,43.92
2019-03-30T04:15:49.864Z,43.68
2019-03-30T04:18:23.359Z,43.94
2019-03-30T04:20:56.992Z,43.91
2019-03-30T04:23:30.376Z,44.01
2019-03-30T04:26:04.303Z,44.11
2019-03-30T04:28:37.845Z,43.93
2019-03-30T04:31:11.334Z,43.85
2019-03-30T04:33:44.486Z,43.75
2019-03-30T04:36:17.848Z,44.14
2019-03-30T04:38:51.322Z,44.08
2019-03-30T04:41:24.432Z,44.09
2019-03-30T04:43:57.571Z,43.53
2019-03-30T04:46:30.947Z,43.95
2019-03-30T04:49:04.338Z,43.95
2019-03-30T04:51:37.576Z,44.13
2019-03-30T04:54:10.876Z,44.16
2019-03-30T04:56:44.911Z,44.16
2019-03-30T04:59:18.330Z,44.12
2019-03-30T05:01:51.883Z,44.14
2019-03-30T05:04:25.362Z,43.73
2019-03-30T05:06:58.710Z,43.90
2019-03-30T05:09:32.065Z,44.10
2019-03-30T05:12:05.534Z,44.12
2019-03-30T05:14:39.038Z,44.24
2019-03-30T05:17:12.374Z,44.24
2019-03-30T05:19:45.667Z,44.05
2019-03-30T05:22:19.319Z,43.89
2019-03-30T05:24:52.416Z,43.89
2019-03-30T05:27:25.859Z,43.86
2019-03-30T05:29:59.399Z,43.84
2019-03-30T05:32:32.901Z,43.95
2019-03-30T05:35:07.323Z,44.05
2019-03-30T05:37:40.884Z,44.01
2019-03-30T05:40:14.497Z,43.54
2019-03-30T05:42:48.334Z,43.72
2019-03-30T05:45:21.819Z,43.99
2019-03-30T05:47:55.364Z,43.88
2019-03-30T05:50:28.820Z,43.79
2019-03-30T05:53:02.857Z,43.32
2019-03-30T05:55:36.393Z,43.80
2019-03-30T05:58:09.867Z,43.03
2019-03-30T06:00:43.290Z,44.04
2019-03-30T06:03:16.520Z,43.33
2019-03-30T06:05:49.828Z,42.27
2019-03-30T06:08:23.323Z,41.10
2019-03-30T06:10:57.344Z,40.19
2019-03-30T06:13:30.528Z,39.62
2019-03-30T06:16:03.845Z,38.98
2019-03-30T06:18:37.593Z,38.66
2019-03-30T06:21:11.010Z,37.67
2019-03-30T06:23:44.597Z,37.67
2019-03-30T06:26:18.477Z,36.18
2019-03-30T06:28:52.069Z,36.18
2019-03-30T06:33:53.764Z,36.41
2019-03-30T06:36:26.346Z,36.41
2019-03-30T06:38:59.092Z,35.95
2019-03-30T06:41:32.801Z,36.12
2019-03-30T06:44:06.293Z,36.53
2019-03-30T06:46:39.629Z,36.49
2019-03-30T06:49:13.269Z,36.42
2019-03-30T06:51:46.095Z,36.26
2019-03-30T06:54:19.394Z,36.90
2019-03-30T06:56:52.302Z,36.46
2019-03-30T06:59:25.290Z,38.01
2019-03-30T07:01:58.677Z,36.36
2019-03-30T07:04:30.577Z,36.85
2019-03-30T07:07:03.718Z,37.17
2019-03-30T07:09:35.151Z,37.17
2019-03-30T07:12:07.991Z,37.16
2019-03-30T07:14:40.868Z,37.01
2019-03-30T07:17:15.656Z,37.48
2019-03-30T07:19:49.299Z,37.95
2019-03-30T07:22:21.904Z,37.95
2019-03-30T07:24:54.977Z,37.61
2019-03-30T07:27:27.974Z,37.78
2019-03-30T07:30:00.992Z,37.75
2019-03-30T07:32:33.987Z,38.04
2019-03-30T07:35:07.044Z,38.33
2019-03-30T07:37:40.297Z,38.38
2019-03-30T07:40:13.046Z,38.19
2019-03-30T07:42:45.895Z,38.28
2019-03-30T07:45:19.144Z,38.26
2019-03-30T07:47:52.772Z,38.93
2019-03-30T07:50:24.632Z,38.92
2019-03-30T07:52:57.397Z,38.09
2019-03-30T07:55:30.328Z,38.09
2019-03-30T07:58:03.211Z,39.78
2019-03-30T08:00:36.310Z,41.38
2019-03-30T08:03:09.297Z,40.38
2019-03-30T08:05:43.665Z,40.98
2019-03-30T08:08:16.890Z,41.06
2019-03-30T08:10:51.286Z,41.06
2019-03-30T08:13:24.811Z,41.04
2019-03-30T08:16:01.878Z,41.16
2019-03-30T08:18:35.445Z,40.44
2019-03-30T08:21:08.886Z,40.68
2019-03-30T08:23:44.069Z,40.65
2019-03-30T08:26:17.457Z,40.12
2019-03-30T08:28:50.640Z,40.49
2019-03-30T08:31:24.508Z,38.91
2019-03-30T08:34:00.092Z,38.91
2019-03-30T08:36:33.660Z,38.81
2019-03-30T08:39:08.294Z,38.93
2019-03-30T08:41:41.793Z,38.63
2019-03-30T08:44:16.284Z,38.39
2019-03-30T08:46:55.642Z,38.38
2019-03-30T08:49:29.539Z,38.60
2019-03-30T08:52:03.402Z,38.60
2019-03-30T08:54:38.365Z,38.33
2019-03-30T08:57:12.444Z,38.61
2019-03-30T08:59:51.426Z,38.10
2019-03-30T09:02:24.834Z,38.17
2019-03-30T09:04:58.879Z,38.38
2019-03-30T09:07:33.320Z,38.43
2019-03-30T09:10:09.106Z,38.45
2019-03-30T09:12:43.597Z,37.93
2019-03-30T09:15:17.149Z,38.56
2019-03-30T09:17:50.525Z,38.07
2019-03-30T09:20:23.983Z,38.07
2019-03-30T09:22:57.364Z,37.74
2019-03-30T09:25:31.032Z,38.22
2019-03-30T09:28:04.461Z,38.20
2019-03-30T09:30:37.921Z,38.90
2019-03-30T09:33:11.539Z,37.97
2019-03-30T09:35:46.544Z,39.01
2019-03-30T09:38:20.349Z,38.70
2019-03-30T09:40:53.915Z,39.24
2019-03-30T09:43:27.318Z,38.63
2019-03-30T09:46:00.875Z,38.76
2019-03-30T09:48:34.594Z,38.67
2019-03-30T09:51:08.403Z,39.68
2019-03-30T09:53:42.446Z,39.68
2019-03-30T09:56:16.353Z,39.60
2019-03-30T09:58:51.407Z,39.32
2019-03-30T10:01:24.851Z,40.21
2019-03-30T10:03:58.864Z,39.91
2019-03-30T10:06:34.601Z,39.90
2019-03-30T10:09:09.034Z,39.50
2019-03-30T10:11:53.744Z,40.60
2019-03-30T10:14:28.058Z,40.30
2019-03-30T10:17:01.704Z,40.06
2019-03-30T10:19:34.261Z,39.87
2019-03-30T10:22:09.330Z,39.83
2019-03-30T10:24:43.417Z,39.87
2019-03-30T10:27:17.362Z,40.00
2019-03-30T10:29:53.431Z,39.80
2019-03-30T10:32:27.872Z,39.72
2019-03-30T10:35:01.709Z,39.74
2019-03-30T10:37:34.768Z,39.90
2019-03-30T10:40:09.407Z,40.22
2019-03-30T10:42:43.503Z,40.22
2019-03-30T10:45:18.493Z,40.08
2019-03-30T10:47:52.517Z,39.78
2019-03-30T10:50:27.352Z,40.14
2019-03-30T10:53:02.113Z,40.02
2019-03-30T10:55:35.403Z,39.96
2019-03-30T10:58:10.498Z,39.91
2019-03-30T11:00:45.081Z,40.06
2019-03-30T11:03:20.441Z,40.09
2019-03-30T11:05:54.825Z,40.33
2019-03-30T11:08:30.112Z,40.00
2019-03-30T11:11:05.333Z,40.18
2019-03-30T11:13:39.694Z,39.70
2019-03-30T11:16:14.474Z,39.94
2019-03-30T11:18:53.442Z,39.93
2019-03-30T11:21:27.492Z,39.74
2019-03-30T11:24:06.391Z,39.30
2019-03-30T11:26:37.111Z,39.87
2019-03-30T11:29:11.307Z,39.87
2019-03-30T11:31:44.721Z,40.08
2019-03-30T11:34:21.694Z,39.80
2019-03-30T11:36:53.966Z,39.90
2019-03-30T11:39:27.469Z,38.57
2019-03-30T11:42:00.881Z,39.34
2019-03-30T11:44:34.333Z,40.03
2019-03-30T11:47:07.807Z,40.01
2019-03-30T11:49:41.548Z,40.07
2019-03-30T11:52:15.100Z,39.63
2019-03-30T11:54:48.446Z,39.46
2019-03-30T11:57:21.615Z,38.83
2019-03-30T11:59:55.394Z,40.21
2019-03-30T12:02:29.015Z,40.21
2019-03-30T12:05:02.921Z,39.45
2019-03-30T12:07:36.557Z,39.25
2019-03-30T12:10:11.003Z,39.44
2019-03-30T12:12:44.881Z,39.19
2019-03-30T12:15:18.860Z,40.12
2019-03-30T12:17:53.077Z,39.45
2019-03-30T12:20:26.841Z,39.67
2019-03-30T12:23:01.254Z,39.68
2019-03-30T12:25:36.094Z,39.20
2019-03-30T12:28:09.867Z,40.01
2019-03-30T12:30:43.420Z,39.83
2019-03-30T12:33:16.931Z,39.31
2019-03-30T12:35:50.398Z,39.74
2019-03-30T12:38:23.923Z,39.44
2019-03-30T12:40:57.419Z,39.44
2019-03-30T12:43:30.689Z,39.51
2019-03-30T12:46:04.420Z,39.67
2019-03-30T12:48:37.887Z,39.67
2019-03-30T12:51:11.722Z,39.77
2019-03-30T12:53:50.159Z,39.93
2019-03-30T12:56:17.917Z,39.23
2019-03-30T12:58:51.405Z,39.51
2019-03-30T13:01:24.576Z,39.62
2019-03-30T13:03:58.097Z,39.76
2019-03-30T13:06:31.520Z,39.76
2019-03-30T13:09:06.556Z,39.95
2019-03-30T13:11:40.089Z,40.08
2019-03-30T13:14:13.362Z,39.49
2019-03-30T13:16:47.014Z,40.50
2019-03-30T13:19:20.581Z,40.35
2019-03-30T13:21:53.926Z,39.35
2019-03-30T13:24:27.481Z,39.35
2019-03-30T13:27:00.947Z,39.02
2019-03-30T13:29:34.483Z,38.67
2019-03-30T13:32:08.372Z,38.31
2019-03-30T13:34:41.828Z,38.31
2019-03-30T13:37:20.953Z,38.16
2019-03-30T13:39:54.513Z,37.96
2019-03-30T13:42:27.903Z,38.02
2019-03-30T13:45:03.481Z,38.17
2019-03-30T13:47:36.880Z,38.00
2019-03-30T13:50:10.374Z,38.02
2019-03-30T13:52:43.800Z,37.98
2019-03-30T13:55:17.355Z,37.91
2019-03-30T13:57:51.469Z,37.76
2019-03-30T14:00:26.227Z,37.93
2019-03-30T14:02:59.979Z,38.13
2019-03-30T14:05:33.481Z,36.95
2019-03-30T14:08:07.329Z,38.24
2019-03-30T14:10:40.853Z,38.46
2019-03-30T14:13:14.382Z,38.47
2019-03-30T14:15:47.495Z,38.48
2019-03-30T14:18:21.090Z,38.46
2019-03-30T14:20:54.798Z,38.48
2019-03-30T14:23:28.373Z,38.59
2019-03-30T14:26:01.846Z,38.61
2019-03-30T14:28:35.435Z,38.73
2019-03-30T14:31:09.068Z,38.74
2019-03-30T14:33:42.311Z,38.77
2019-03-30T14:36:15.475Z,38.84
2019-03-30T14:38:49.285Z,38.26
2019-03-30T14:41:23.335Z,37.88
2019-03-30T14:43:56.877Z,38.76
2019-03-30T14:46:31.379Z,38.82
2019-03-30T14:49:04.822Z,38.65
2019-03-30T14:51:38.327Z,38.89
2019-03-30T14:54:11.928Z,38.92
2019-03-30T14:56:46.376Z,38.94
2019-03-30T14:59:19.863Z,38.91
2019-03-30T15:01:53.421Z,38.85
2019-03-30T15:04:26.829Z,38.85
2019-03-30T15:07:00.332Z,38.91
2019-03-30T15:09:33.838Z,38.92
2019-03-30T15:12:07.439Z,39.00
2019-03-30T15:14:40.842Z,39.10
2019-03-30T15:17:14.891Z,39.09
2019-03-30T15:19:48.338Z,38.91
2019-03-30T15:22:21.609Z,38.44
2019-03-30T15:24:55.107Z,37.93
2019-03-30T15:27:28.469Z,37.93
2019-03-30T15:30:01.821Z,37.78
2019-03-30T15:32:36.388Z,37.87
2019-03-30T15:35:10.387Z,37.91
2019-03-30T15:37:43.867Z,37.89
2019-03-30T15:40:17.313Z,38.01
2019-03-30T15:42:50.852Z,38.11
2019-03-30T15:45:35.576Z,38.00
2019-03-30T15:48:08.879Z,37.95
2019-03-30T15:50:41.694Z,38.10
2019-03-30T15:53:13.735Z,38.07
2019-03-30T15:59:23.281Z,37.65
2019-03-30T16:01:59.613Z,38.07
2019-03-30T16:07:21.671Z,38.16
2019-03-30T16:09:55.832Z,38.30
2019-03-30T16:12:29.481Z,38.30
2019-03-30T16:15:02.886Z,38.40
2019-03-30T16:17:36.865Z,38.51
2019-03-30T16:20:10.388Z,38.35
2019-03-30T16:22:44.089Z,38.55
2019-03-30T16:25:17.365Z,38.48
2019-03-30T16:27:50.302Z,38.55
2019-03-30T16:30:23.315Z,38.62
2019-03-30T16:32:56.069Z,38.54
2019-03-30T16:35:28.874Z,38.28
2019-03-30T16:38:01.785Z,38.41
2019-03-30T16:40:34.774Z,38.42
2019-03-30T16:43:08.537Z,38.21
2019-03-30T16:45:41.744Z,37.88
2019-03-30T16:48:14.874Z,37.86
2019-03-30T16:50:48.034Z,37.72
2019-03-30T16:53:20.885Z,37.64
2019-03-30T16:55:53.817Z,37.50
2019-03-30T16:58:26.745Z,37.61
2019-03-30T17:00:59.741Z,37.56
2019-03-30T17:03:31.440Z,37.88
2019-03-30T17:06:04.030Z,37.52
2019-03-30T17:08:36.881Z,37.63
2019-03-30T17:11:09.840Z,37.84
2019-03-30T17:13:42.840Z,37.74
2019-03-30T17:16:15.782Z,37.69
2019-03-30T17:18:48.822Z,37.30
2019-03-30T17:21:21.774Z,37.42
2019-03-30T17:23:55.297Z,37.06
2019-03-30T17:26:28.053Z,37.30
2019-03-30T17:29:00.998Z,37.09
2019-03-30T17:31:33.841Z,36.88
2019-03-30T17:34:06.787Z,36.57
2019-03-30T17:36:39.871Z,36.68
2019-03-30T17:39:14.302Z,36.38
2019-03-30T17:41:47.061Z,36.52
2019-03-30T17:44:20.344Z,36.10
2019-03-30T17:46:53.059Z,36.50
2019-03-30T17:49:25.985Z,36.14
2019-03-30T17:51:58.929Z,35.78
2019-03-30T17:54:31.866Z,36.25
2019-03-30T17:57:04.822Z,36.46
2019-03-30T17:59:37.797Z,36.11
2019-03-30T18:02:10.755Z,36.03
2019-03-30T18:04:42.494Z,36.37
2019-03-30T18:07:15.067Z,36.35
2019-03-30T18:09:48.314Z,36.33
2019-03-30T18:12:21.029Z,36.30
2019-03-30T18:14:53.879Z,36.23
2019-03-30T18:17:26.818Z,35.86
2019-03-30T18:19:59.808Z,35.99
2019-03-30T18:22:32.735Z,36.35
2019-03-30T18:25:05.982Z,35.76
2019-03-30T18:27:38.846Z,35.88
2019-03-30T18:30:12.841Z,36.06
2019-03-30T18:32:45.840Z,36.12
2019-03-30T18:35:18.722Z,36.20
2019-03-30T18:37:50.593Z,36.18
2019-03-30T18:40:34.305Z,36.21
2019-03-30T18:43:07.350Z,36.21
2019-03-30T18:45:40.268Z,36.47
2019-03-30T18:48:16.765Z,36.42
2019-03-30T18:50:48.605Z,36.08
2019-03-30T18:53:21.791Z,36.01
2019-03-30T18:55:53.605Z,36.01
2019-03-30T18:58:25.668Z,36.22
2019-03-30T19:00:58.377Z,38.56
2019-03-30T19:03:31.010Z,38.56
2019-03-30T19:06:05.091Z,38.24
2019-03-30T19:08:37.817Z,38.08
2019-03-30T19:11:10.787Z,38.76
2019-03-30T19:13:43.812Z,38.75
2019-03-30T19:16:16.808Z,38.65
2019-03-30T19:18:50.047Z,38.93
2019-03-30T19:21:23.049Z,37.98
2019-03-30T19:23:55.990Z,38.63
2019-03-30T19:26:29.296Z,39.22
2019-03-30T19:29:02.016Z,38.59
2019-03-30T19:31:34.885Z,37.90
2019-03-30T19:34:07.821Z,37.50
2019-03-30T19:36:40.891Z,37.51
2019-03-30T19:39:13.875Z,37.33
2019-03-30T19:41:46.838Z,36.92
2019-03-30T19:44:20.057Z,36.60
2019-03-30T19:46:52.973Z,36.77
2019-03-30T19:49:25.993Z,36.48
2019-03-30T19:51:58.890Z,36.13
2019-03-30T19:54:31.961Z,35.83
2019-03-30T19:57:04.881Z,36.53
2019-03-30T19:59:38.004Z,36.38
2019-03-30T20:04:47.453Z,36.39
2019-03-30T20:07:21.453Z,35.85
2019-03-30T20:09:54.860Z,36.20
2019-03-30T20:12:28.495Z,35.82
2019-03-30T20:15:02.355Z,35.56
2019-03-30T20:17:35.920Z,35.56
2019-03-30T20:20:11.595Z,35.65
2019-03-30T20:22:45.117Z,35.59
2019-03-30T20:25:18.530Z,35.59
2019-03-30T20:27:52.132Z,35.09
2019-03-30T20:30:25.519Z,35.30
2019-03-30T20:32:58.867Z,35.72
2019-03-30T20:35:32.447Z,35.78
2019-03-30T20:38:05.852Z,36.07
2019-03-30T20:40:39.549Z,35.43
2019-03-30T20:43:12.893Z,36.26
2019-03-30T20:45:46.293Z,35.97
2019-03-30T20:48:19.855Z,35.33
2019-03-30T20:50:53.397Z,35.72
2019-03-30T20:53:26.845Z,35.84
2019-03-30T20:56:00.344Z,35.61
2019-03-30T20:58:33.883Z,35.32
2019-03-30T21:01:07.677Z,35.00
2019-03-30T21:03:39.691Z,35.41
2019-03-30T21:06:11.802Z,36.08
2019-03-30T21:08:45.342Z,36.72
2019-03-30T21:11:20.133Z,37.83
2019-03-30T21:13:56.651Z,37.74
2019-03-30T21:16:28.463Z,38.56
2019-03-30T21:19:02.328Z,38.92
2019-03-30T21:21:35.864Z,39.31
2019-03-30T21:24:09.521Z,39.63
2019-03-30T21:26:43.390Z,39.27
2019-03-30T21:29:17.329Z,39.54
2019-03-30T21:31:50.923Z,38.76
2019-03-30T21:34:24.639Z,39.85
2019-03-30T21:36:58.414Z,39.74
2019-03-30T21:39:31.864Z,39.74
2019-03-30T21:42:08.222Z,39.75
2019-03-30T21:44:41.864Z,40.04
2019-03-30T21:47:15.394Z,39.70
2019-03-30T21:49:48.854Z,39.87
2019-03-30T21:52:22.471Z,40.20
2019-03-30T21:54:57.956Z,39.37
2019-03-30T21:57:31.416Z,40.21
2019-03-30T22:00:10.565Z,40.27
2019-03-30T22:02:40.350Z,40.28
2019-03-30T22:05:13.851Z,40.28
2019-03-30T22:07:47.871Z,40.21
2019-03-30T22:10:30.896Z,40.50
2019-03-30T22:13:06.519Z,40.34
2019-03-30T22:15:40.340Z,40.39
2019-03-30T22:18:14.306Z,40.07
2019-03-30T22:20:47.888Z,40.29
2019-03-30T22:23:22.333Z,40.48
2019-03-30T22:25:55.890Z,40.56
2019-03-30T22:28:29.368Z,40.70
2019-03-30T22:31:03.003Z,40.54
2019-03-30T22:33:35.997Z,40.69
2019-03-30T22:36:09.078Z,40.67
2019-03-30T22:38:42.064Z,40.76
2019-03-30T22:41:35.439Z,40.78
2019-03-30T22:44:08.440Z,40.48
2019-03-30T22:46:41.080Z,40.55
2019-03-30T22:49:14.442Z,40.77
2019-03-30T22:51:47.542Z,40.61
2019-03-30T22:54:25.880Z,41.05
2019-03-30T22:56:58.898Z,41.05
2019-03-30T22:59:31.986Z,40.86
2019-03-30T23:02:05.004Z,40.50
2019-03-30T23:04:38.378Z,40.88
2019-03-30T23:07:11.013Z,40.86
2019-03-30T23:09:44.009Z,40.77
2019-03-30T23:12:17.326Z,41.04
2019-03-30T23:14:50.138Z,41.07
2019-03-30T23:17:23.304Z,40.92
2019-03-30T23:19:56.879Z,41.01
2019-03-30T23:22:30.467Z,40.96
2019-03-30T23:25:03.783Z,41.09
2019-03-30T23:27:36.744Z,41.10
2019-03-30T23:30:08.793Z,41.17
2019-03-30T23:32:41.768Z,40.86
2019-03-30T23:35:13.494Z,41.16
2019-03-30T23:37:46.351Z,41.09
2019-03-30T23:40:19.067Z,41.19
2019-03-30T23:42:52.071Z,41.22
2019-03-30T23:45:25.013Z,41.42
2019-03-30T23:47:57.861Z,41.34
2019-03-30T23:50:30.779Z,41.34
2019-03-30T23:53:02.493Z,41.19
2019-03-30T23:55:35.781Z,41.37
2019-03-30T23:58:07.716Z,41.09
